This is the latest recevied weather packets stored in our database for station/object KB3HLL. If no packets are shown the sender has not sent any weather packets the latest 1 day(s).
| Time | Temp. | Humidity | Pressure | Rain* | Wind** | Luminosity | Snow |
|---|---|---|---|---|---|---|---|
| 1777985479 | 16.67° C | 76% | 1011.3 hPa | 1.52 mm | 1.34 m/s, 247° | 423 W/m² | - |
| 1777985178 | 16.67° C | 77% | 1011.3 hPa | 1.52 mm | 1.79 m/s, 258° | 378 W/m² | - |
| 1777984879 | 16.11° C | 78% | 1011.4 hPa | 1.52 mm | 1.79 m/s, 251° | 359 W/m² | - |
| 1777984586 | 15.56° C | 80% | 1011.4 hPa | 1.52 mm | 1.79 m/s, 246° | 108 W/m² | - |
| 1777984279 | 15.56° C | 81% | 1011.7 hPa | 1.27 mm | 1.34 m/s, 238° | 95 W/m² | - |
| 1777983979 | 15° C | 82% | 1011.6 hPa | 1.02 mm | 0.89 m/s, 249° | 150 W/m² | - |
| 1777983680 | 14.44° C | 83% | 1011.6 hPa | 1.02 mm | 2.24 m/s, 229° | 47 W/m² | - |
| 1777983379 | 14.44° C | 84% | 1011.8 hPa | 0.76 mm | 2.24 m/s, 217° | 16 W/m² | - |
| 1777983080 | 14.44° C | 86% | 1011.8 hPa | 0.51 mm | 2.24 m/s, 217° | 14 W/m² | - |
| 1777982780 | 14.44° C | 85% | 1012 hPa | 0.51 mm | 3.58 m/s, 196° | 16 W/m² | - |
| 1777982486 | 15° C | 83% | 1012.1 hPa | 0 mm | 1.79 m/s, 208° | 33 W/m² | - |
| 1777982014 | 16.11° C | 81% | 1011.8 hPa | 0 mm | 1.34 m/s, 248° | 20 W/m² | - |
| 1777981578 | 16.11° C | 70% | 1011.6 hPa | 0 mm | 2.24 m/s, 222° | 43 W/m² | - |
| 1777981278 | 16.11° C | 71% | 1011.6 hPa | 0 mm | 1.79 m/s, 218° | 76 W/m² | - |
| 1777980980 | 16.11° C | 72% | 1011.4 hPa | 0 mm | 1.79 m/s, 207° | 95 W/m² | - |
| 1777980677 | 16.11° C | 70% | 1011.2 hPa | 0 mm | 0.89 m/s, 216° | 95 W/m² | - |
| 1777980380 | 16.11° C | 70% | 1011.1 hPa | 0 mm | 1.79 m/s, 238° | 70 W/m² | - |
| 1777980081 | 16.11° C | 71% | 1011.1 hPa | 0 mm | 1.79 m/s, 223° | 59 W/m² | - |
| 1777979778 | 15.56° C | 72% | 1011.1 hPa | 0 mm | 2.68 m/s, 194° | 63 W/m² | - |
| 1777979479 | 15.56° C | 72% | 1011 hPa | 0 mm | 1.79 m/s, 215° | 52 W/m² | - |
| 1777979180 | 15.56° C | 72% | 1011 hPa | 0 mm | 1.34 m/s, 210° | 53 W/m² | - |
| 1777978881 | 15.56° C | 74% | 1011.1 hPa | 0 mm | 1.34 m/s, 223° | 51 W/m² | - |
| 1777978580 | 15.56° C | 73% | 1011 hPa | 0 mm | 2.68 m/s, 199° | 43 W/m² | - |
| 1777978277 | 15.56° C | 73% | 1011 hPa | 0 mm | 1.79 m/s, 184° | 40 W/m² | - |
| 1777977977 | 15.56° C | 73% | 1011.2 hPa | 0 mm | 1.79 m/s, 204° | 44 W/m² | - |
* Rain latest hour (hover to see other rain measurements)
** Current wind speed in m/s (hover to see current wind gust speed)